Time;durP1;ratioP1;P1;durP2;ratioP2;P2;SDS_P1;SDS_P2;PMS_P1;PMS_P2;Temp;Humidity;BMP_temperature;BMP_pressure;BME280_temperature;BME280_humidity;BME280_pressure;Samples;Min_cycle;Max_cycle;Signal;HPM_P1;HPM_P2
2022/11/11 00:02:00;;;;;;;21.70;10.57;;;;;;;;;;5012504;28;20040;-76
2022/11/11 00:04:26;;;;;;;23.33;11.93;;;;;;;;;;5012107;28;20044;-76
2022/11/11 00:06:52;;;;;;;24.37;10.73;;;;;;;;;;5011097;28;20036;-77
2022/11/11 00:09:18;;;;;;;23.90;9.40;;;;;;;;;;5012327;28;20106;-76
2022/11/11 00:11:44;;;;;;;19.50;11.10;;;;;;;;;;5012131;28;20033;-76
2022/11/11 00:14:09;;;;;;;23.27;10.17;;;;;;;;;;5011614;28;20029;-76
2022/11/11 00:25:05;;;;;;;21.70;10.60;;;;;;;;;;5011604;28;20406;-76
2022/11/11 00:27:30;;;;;;;20.77;9.97;;;;;;;;;;5011923;28;20489;-75
2022/11/11 00:29:56;;;;;;;21.77;11.63;;;;;;;;;;5009819;28;20038;-76
2022/11/11 00:32:21;;;;;;;19.40;11.23;;;;;;;;;;5011050;28;20032;-74
2022/11/11 00:37:32;;;;;;;20.00;9.97;;;;;;;;;;5011248;28;20036;-77
2022/11/11 00:39:58;;;;;;;24.90;10.37;;;;;;;;;;5008904;28;20053;-77
2022/11/11 00:42:23;;;;;;;21.13;10.00;;;;;;;;;;5009038;28;20037;-76
2022/11/11 00:44:49;;;;;;;17.70;9.63;;;;;;;;;;5009899;28;20029;-76
2022/11/11 00:52:46;;;;;;;25.23;10.33;;;;;;;;;;5011227;28;20215;-77
2022/11/11 00:55:12;;;;;;;24.87;10.80;;;;;;;;;;5011791;28;20105;-76
2022/11/11 00:57:38;;;;;;;19.93;9.10;;;;;;;;;;5012076;28;20029;-76
2022/11/11 01:00:04;;;;;;;21.07;10.33;;;;;;;;;;5011176;28;20470;-76
2022/11/11 01:02:30;;;;;;;21.50;10.77;;;;;;;;;;5009403;28;20434;-76
2022/11/11 01:04:55;;;;;;;23.50;10.67;;;;;;;;;;5011037;28;20026;-76
2022/11/11 01:07:21;;;;;;;19.20;10.30;;;;;;;;;;5010024;28;20026;-76
2022/11/11 01:09:47;;;;;;;25.57;10.43;;;;;;;;;;5011400;28;20402;-77
2022/11/11 01:12:12;;;;;;;23.87;11.47;;;;;;;;;;5010690;28;20033;-75
2022/11/11 01:14:38;;;;;;;20.17;9.97;;;;;;;;;;5010794;28;20037;-77
2022/11/11 01:17:05;;;;;;;17.03;10.10;;;;;;;;;;5010274;28;20037;-77
2022/11/11 01:19:31;;;;;;;24.83;10.47;;;;;;;;;;5011088;28;20382;-78
2022/11/11 01:21:56;;;;;;;19.67;10.37;;;;;;;;;;5043058;28;20026;-76
2022/11/11 01:24:22;;;;;;;22.37;10.57;;;;;;;;;;5010384;28;20142;-76
2022/11/11 01:26:47;;;;;;;21.40;10.20;;;;;;;;;;4994223;28;20383;-77
2022/11/11 01:29:13;;;;;;;20.33;10.50;;;;;;;;;;4988883;28;20463;-75
2022/11/11 01:31:38;;;;;;;18.50;9.77;;;;;;;;;;4991103;28;20041;-76
2022/11/11 01:34:05;;;;;;;22.60;10.30;;;;;;;;;;4989879;28;20034;-75
2022/11/11 01:36:30;;;;;;;22.53;10.23;;;;;;;;;;4990613;28;20465;-74
2022/11/11 01:38:58;;;;;;;22.47;10.60;;;;;;;;;;4989377;28;20038;-76
2022/11/11 01:41:33;;;;;;;22.87;10.07;;;;;;;;;;4989605;28;20046;-76
2022/11/11 01:44:19;;;;;;;21.87;9.87;;;;;;;;;;4990195;28;20390;-78
2022/11/11 01:46:54;;;;;;;18.80;9.27;;;;;;;;;;4991208;28;20148;-73
2022/11/11 01:49:34;;;;;;;18.60;10.17;;;;;;;;;;4989639;28;20033;-77
2022/11/11 01:52:21;;;;;;;25.50;11.50;;;;;;;;;;4991860;28;20038;-77
2022/11/11 01:54:58;;;;;;;23.97;10.07;;;;;;;;;;4994638;28;20359;-75
2022/11/11 01:57:35;;;;;;;18.17;9.27;;;;;;;;;;4994284;28;20058;-77
2022/11/11 02:00:07;;;;;;;17.93;9.30;;;;;;;;;;4993182;28;20363;-76
2022/11/11 02:02:49;;;;;;;18.83;10.27;;;;;;;;;;4994995;28;20479;-77
2022/11/11 02:08:06;;;;;;;21.73;10.53;;;;;;;;;;4994380;28;20447;-76
2022/11/11 02:10:32;;;;;;;21.73;9.90;;;;;;;;;;4993101;28;20018;-76
2022/11/11 02:15:43;;;;;;;18.27;9.67;;;;;;;;;;4993834;28;20064;-76
2022/11/11 02:18:09;;;;;;;19.43;9.60;;;;;;;;;;4994839;28;20034;-79
2022/11/11 02:20:39;;;;;;;17.53;9.70;;;;;;;;;;4994812;28;20061;-76
2022/11/11 02:23:24;;;;;;;17.90;9.87;;;;;;;;;;4995055;28;20038;-77
2022/11/11 02:25:51;;;;;;;20.10;9.67;;;;;;;;;;4993548;28;20117;-76
2022/11/11 02:28:20;;;;;;;19.77;9.00;;;;;;;;;;4993559;28;20033;-75
2022/11/11 02:30:45;;;;;;;19.80;9.83;;;;;;;;;;4993368;28;20052;-76
2022/11/11 02:33:11;;;;;;;22.10;10.27;;;;;;;;;;4994270;28;20117;-75
2022/11/11 02:35:42;;;;;;;18.10;9.03;;;;;;;;;;4994278;28;20371;-76
2022/11/11 02:38:10;;;;;;;20.05;9.63;;;;;;;;;;4992829;28;20093;-76
2022/11/11 02:40:37;;;;;;;18.13;8.87;;;;;;;;;;4994093;28;20070;-76
2022/11/11 02:43:04;;;;;;;50.23;17.60;;;;;;;;;;4992747;28;20026;-76
2022/11/11 02:45:29;;;;;;;24.27;11.20;;;;;;;;;;4991954;28;20026;-75
2022/11/11 02:47:55;;;;;;;18.50;9.67;;;;;;;;;;4992307;28;20426;-76
2022/11/11 02:50:20;;;;;;;23.00;10.87;;;;;;;;;;4992747;28;20018;-77
2022/11/11 02:52:46;;;;;;;23.33;9.57;;;;;;;;;;4991902;28;20026;-77
2022/11/11 02:55:11;;;;;;;26.43;9.67;;;;;;;;;;4994240;28;20033;-75
2022/11/11 02:57:37;;;;;;;18.77;10.70;;;;;;;;;;4993783;28;20042;-75
2022/11/11 03:00:03;;;;;;;22.93;10.87;;;;;;;;;;4976179;28;20588;-78
2022/11/11 03:02:29;;;;;;;18.50;10.37;;;;;;;;;;4992923;28;20031;-76
2022/11/11 03:04:56;;;;;;;23.60;10.73;;;;;;;;;;4992685;28;20023;-76
2022/11/11 03:07:24;;;;;;;21.83;10.13;;;;;;;;;;4992679;28;20080;-76
2022/11/11 03:09:49;;;;;;;19.10;9.67;;;;;;;;;;4992109;28;20026;-78
2022/11/11 03:12:16;;;;;;;27.33;11.40;;;;;;;;;;4993835;28;20026;-77
2022/11/11 03:14:42;;;;;;;18.33;10.03;;;;;;;;;;4991820;28;20037;-78
2022/11/11 03:21:03;;;;;;;21.67;10.70;;;;;;;;;;4993896;28;20402;-76
2022/11/11 03:22:38;;;;;;;24.17;10.40;;;;;;;;;;4991613;28;20044;-77
2022/11/11 03:27:48;;;;;;;24.23;10.43;;;;;;;;;;5013462;28;20044;-76
2022/11/11 03:30:13;;;;;;;21.37;9.73;;;;;;;;;;5011440;28;20017;-76
2022/11/11 03:32:39;;;;;;;23.30;11.27;;;;;;;;;;5044606;28;20049;-76
2022/11/11 03:35:04;;;;;;;19.20;9.40;;;;;;;;;;5011537;28;20474;-76
2022/11/11 03:40:13;;;;;;;24.33;10.57;;;;;;;;;;5012787;28;20053;-77
2022/11/11 03:42:40;;;;;;;19.37;10.33;;;;;;;;;;5012567;28;20033;-76
2022/11/11 03:45:06;;;;;;;24.63;9.90;;;;;;;;;;5013274;28;20022;-77
2022/11/11 03:47:32;;;;;;;18.20;10.10;;;;;;;;;;5012437;28;20433;-78
2022/11/11 03:49:57;;;;;;;19.67;9.23;;;;;;;;;;5012626;28;20068;-74
2022/11/11 03:52:23;;;;;;;18.90;9.50;;;;;;;;;;5011191;28;20034;-76
2022/11/11 03:54:48;;;;;;;18.53;9.67;;;;;;;;;;5044646;28;20060;-76
2022/11/11 03:59:58;;;;;;;21.77;10.67;;;;;;;;;;5012416;28;20052;-76
2022/11/11 04:10:35;;;;;;;24.77;10.93;;;;;;;;;;5012513;28;20428;-76
2022/11/11 04:23:57;;;;;;;42.77;11.53;;;;;;;;;;5012390;28;20052;-77
2022/11/11 04:26:23;;;;;;;21.97;10.63;;;;;;;;;;5014388;28;20575;-76
2022/11/11 04:31:32;;;;;;;20.80;8.90;;;;;;;;;;5012278;28;20049;-75
2022/11/11 04:33:58;;;;;;;19.80;9.17;;;;;;;;;;5011826;28;20346;-75
2022/11/11 04:36:23;;;;;;;20.80;10.67;;;;;;;;;;5011887;28;20079;-75
2022/11/11 04:41:33;;;;;;;24.27;10.10;;;;;;;;;;5011289;28;20533;-75
2022/11/11 04:46:42;;;;;;;19.50;9.73;;;;;;;;;;5011937;28;20036;-76
2022/11/11 04:49:08;;;;;;;19.73;10.23;;;;;;;;;;5011919;28;20453;-76
2022/11/11 04:54:17;;;;;;;20.20;9.47;;;;;;;;;;5011512;28;20032;-76
2022/11/11 04:56:49;;;;;;;20.30;9.63;;;;;;;;;;5011084;28;20026;-78
2022/11/11 04:59:19;;;;;;;22.95;10.27;;;;;;;;;;5011114;28;20030;-76
2022/11/11 05:04:29;;;;;;;25.13;10.67;;;;;;;;;;5010952;28;20060;-76
2022/11/11 05:09:39;;;;;;;17.67;10.03;;;;;;;;;;5011291;28;20076;-76
2022/11/11 05:12:05;;;;;;;20.43;11.07;;;;;;;;;;5010924;28;20394;-77
2022/11/11 05:22:56;;;;;;;19.83;10.37;;;;;;;;;;5011007;28;20120;-76
2022/11/11 05:25:24;;;;;;;25.67;11.00;;;;;;;;;;5008109;28;20050;-76
2022/11/11 05:27:53;;;;;;;19.13;10.67;;;;;;;;;;4993335;28;20030;-77
2022/11/11 05:30:20;;;;;;;23.37;10.30;;;;;;;;;;4995593;28;20022;-78
2022/11/11 05:32:45;;;;;;;15.07;9.00;;;;;;;;;;4995574;28;20072;-75
2022/11/11 05:35:12;;;;;;;18.03;9.50;;;;;;;;;;4994377;28;20011;-76
2022/11/11 05:37:38;;;;;;;21.47;10.07;;;;;;;;;;4993842;28;20026;-77
2022/11/11 05:40:04;;;;;;;23.97;10.50;;;;;;;;;;4993989;28;20116;-75
2022/11/11 05:42:29;;;;;;;15.97;8.97;;;;;;;;;;4994704;28;20042;-75
2022/11/11 05:44:55;;;;;;;30.67;10.37;;;;;;;;;;4993444;28;20427;-77
2022/11/11 05:47:20;;;;;;;21.60;9.53;;;;;;;;;;4993390;28;20430;-78
2022/11/11 05:49:46;;;;;;;20.90;9.83;;;;;;;;;;4995020;28;20034;-75
2022/11/11 05:52:15;;;;;;;16.53;8.33;;;;;;;;;;4995031;28;20045;-77
2022/11/11 05:54:40;;;;;;;23.13;10.37;;;;;;;;;;4993874;28;20030;-76
2022/11/11 05:57:06;;;;;;;23.00;9.07;;;;;;;;;;4995441;28;20101;-79
2022/11/11 05:59:31;;;;;;;47.57;11.83;;;;;;;;;;4993633;28;20113;-76
2022/11/11 06:01:57;;;;;;;20.50;9.00;;;;;;;;;;4993700;28;20037;-77
2022/11/11 06:04:23;;;;;;;17.07;8.33;;;;;;;;;;4994934;28;20038;-76
2022/11/11 06:06:48;;;;;;;18.53;8.83;;;;;;;;;;4995500;28;20104;-78
2022/11/11 06:09:14;;;;;;;19.73;8.60;;;;;;;;;;4996027;28;20081;-75
2022/11/11 06:11:39;;;;;;;13.77;8.73;;;;;;;;;;4995665;28;20034;-76
2022/11/11 06:14:05;;;;;;;18.33;8.90;;;;;;;;;;4995353;28;20038;-76
2022/11/11 06:16:30;;;;;;;17.57;9.43;;;;;;;;;;4996000;28;20130;-78
2022/11/11 06:18:56;;;;;;;24.97;9.70;;;;;;;;;;4996192;28;20030;-78
2022/11/11 06:21:21;;;;;;;22.00;9.73;;;;;;;;;;4994546;28;20029;-79
2022/11/11 06:23:47;;;;;;;20.73;9.83;;;;;;;;;;4993987;28;20068;-77
2022/11/11 06:26:13;;;;;;;19.30;9.97;;;;;;;;;;5005748;28;20034;-76
2022/11/11 06:28:50;;;;;;;18.43;9.13;;;;;;;;;;5014758;28;20061;-74
2022/11/11 06:31:17;;;;;;;21.33;10.23;;;;;;;;;;5014018;28;20026;-76
2022/11/11 06:33:43;;;;;;;17.50;9.20;;;;;;;;;;5015625;28;20113;-77
2022/11/11 06:36:12;;;;;;;19.93;10.77;;;;;;;;;;5014364;28;20030;-77
2022/11/11 06:38:39;;;;;;;18.57;9.33;;;;;;;;;;5014542;28;20036;-78
2022/11/11 06:41:06;;;;;;;16.20;9.27;;;;;;;;;;5016183;28;20068;-79
2022/11/11 06:43:32;;;;;;;20.83;10.20;;;;;;;;;;5014694;28;20033;-77
2022/11/11 06:45:59;;;;;;;20.27;9.33;;;;;;;;;;5014529;28;20129;-76
2022/11/11 06:48:26;;;;;;;19.37;8.90;;;;;;;;;;5016898;28;20025;-78
2022/11/11 06:50:52;;;;;;;16.60;10.17;;;;;;;;;;5031069;28;20117;-78
2022/11/11 06:53:18;;;;;;;16.37;8.47;;;;;;;;;;5014185;28;20061;-77
2022/11/11 06:55:44;;;;;;;23.00;9.37;;;;;;;;;;5013406;28;20124;-77
2022/11/11 06:58:12;;;;;;;21.47;9.40;;;;;;;;;;5015628;28;20053;-77
2022/11/11 07:00:39;;;;;;;23.90;12.30;;;;;;;;;;5012887;28;20033;-78
2022/11/11 07:03:06;;;;;;;23.20;10.57;;;;;;;;;;5013269;28;20030;-77
2022/11/11 07:05:32;;;;;;;20.47;9.30;;;;;;;;;;5007150;28;20065;-78
2022/11/11 07:08:04;;;;;;;20.53;9.23;;;;;;;;;;5020483;28;20459;-76
2022/11/11 07:10:30;;;;;;;17.37;9.57;;;;;;;;;;5010433;28;20379;-79
2022/11/11 07:12:59;;;;;;;26.33;8.47;;;;;;;;;;5010700;28;20151;-77
2022/11/11 07:15:24;;;;;;;23.83;10.27;;;;;;;;;;5007000;28;20390;-77
2022/11/11 07:17:50;;;;;;;19.07;8.57;;;;;;;;;;5008885;28;20030;-79
2022/11/11 07:20:16;;;;;;;13.73;7.93;;;;;;;;;;5015380;28;20036;-79
2022/11/11 07:22:45;;;;;;;19.23;10.27;;;;;;;;;;5008709;28;20556;-78
2022/11/11 07:25:15;;;;;;;15.40;8.90;;;;;;;;;;5008422;28;20044;-79
2022/11/11 07:27:42;;;;;;;18.37;9.07;;;;;;;;;;5008713;28;20034;-78
2022/11/11 07:30:10;;;;;;;16.57;8.07;;;;;;;;;;5005531;28;20347;-77
2022/11/11 07:32:37;;;;;;;16.00;8.30;;;;;;;;;;5004241;28;20923;-78
2022/11/11 07:35:09;;;;;;;20.93;9.00;;;;;;;;;;5007876;28;20033;-80
2022/11/11 07:37:37;;;;;;;21.33;9.17;;;;;;;;;;5008728;28;20083;-81
2022/11/11 07:40:06;;;;;;;16.57;9.30;;;;;;;;;;5006817;28;20066;-80
2022/11/11 07:42:36;;;;;;;22.20;9.47;;;;;;;;;;5007802;28;20045;-80
2022/11/11 07:45:03;;;;;;;19.57;9.53;;;;;;;;;;5005919;28;20489;-79
2022/11/11 07:47:31;;;;;;;15.93;8.70;;;;;;;;;;5006092;28;20145;-77
2022/11/11 07:49:57;;;;;;;22.97;9.33;;;;;;;;;;5012563;28;20034;-80
2022/11/11 07:52:22;;;;;;;17.13;9.23;;;;;;;;;;5004858;28;20038;-77
2022/11/11 07:54:49;;;;;;;21.23;9.70;;;;;;;;;;4991115;28;20029;-78
2022/11/11 07:57:15;;;;;;;19.77;10.07;;;;;;;;;;5008782;28;20446;-80
2022/11/11 07:59:41;;;;;;;20.50;9.30;;;;;;;;;;5010324;28;20124;-78
2022/11/11 08:02:11;;;;;;;18.90;9.53;;;;;;;;;;5004271;28;20057;-80
2022/11/11 08:04:37;;;;;;;18.90;9.50;;;;;;;;;;5008424;28;20045;-79
2022/11/11 08:07:03;;;;;;;20.73;9.40;;;;;;;;;;5008330;28;20115;-77
2022/11/11 08:09:29;;;;;;;16.57;8.63;;;;;;;;;;5007729;28;20475;-80
2022/11/11 08:14:38;;;;;;;18.97;9.40;;;;;;;;;;5009494;28;20129;-79
2022/11/11 08:17:04;;;;;;;22.63;9.57;;;;;;;;;;5006973;28;20128;-78
2022/11/11 08:19:30;;;;;;;23.07;9.60;;;;;;;;;;5008314;28;20036;-79
2022/11/11 08:21:55;;;;;;;19.00;9.70;;;;;;;;;;5005867;28;20441;-78
2022/11/11 08:24:21;;;;;;;22.63;10.10;;;;;;;;;;5008773;28;20037;-79
2022/11/11 08:26:48;;;;;;;16.87;9.57;;;;;;;;;;5008135;28;20247;-79
2022/11/11 08:29:13;;;;;;;19.80;8.80;;;;;;;;;;5008570;28;20068;-79
2022/11/11 08:31:39;;;;;;;23.93;9.67;;;;;;;;;;5010503;28;20058;-79
2022/11/11 08:34:04;;;;;;;20.37;9.93;;;;;;;;;;5007585;28;20052;-78
2022/11/11 08:36:30;;;;;;;15.70;8.80;;;;;;;;;;5006353;28;20045;-79
2022/11/11 08:38:56;;;;;;;19.48;9.50;;;;;;;;;;5004506;28;20122;-79
2022/11/11 08:41:22;;;;;;;24.23;8.90;;;;;;;;;;5004806;28;20088;-78
2022/11/11 08:43:53;;;;;;;21.93;9.70;;;;;;;;;;5007717;28;20037;-77
2022/11/11 08:46:20;;;;;;;23.75;10.20;;;;;;;;;;5007720;28;20059;-79
2022/11/11 08:48:46;;;;;;;21.93;11.80;;;;;;;;;;5012523;28;20101;-77
2022/11/11 08:51:12;;;;;;;16.90;8.20;;;;;;;;;;5007548;28;20083;-80
2022/11/11 08:53:37;;;;;;;24.40;9.48;;;;;;;;;;5010203;28;20026;-80
2022/11/11 08:56:03;;;;;;;18.27;9.27;;;;;;;;;;5006304;28;20026;-77
2022/11/11 08:58:29;;;;;;;15.05;9.15;;;;;;;;;;5005803;28;20021;-78
2022/11/11 09:00:55;;;;;;;21.17;10.60;;;;;;;;;;5004083;28;20041;-78
2022/11/11 09:03:21;;;;;;;20.13;8.98;;;;;;;;;;5005368;28;20026;-78
2022/11/11 09:05:46;;;;;;;18.10;8.93;;;;;;;;;;5005731;28;20419;-80
2022/11/11 09:08:12;;;;;;;20.27;11.23;;;;;;;;;;5007809;28;20036;-79
2022/11/11 09:10:37;;;;;;;18.10;8.98;;;;;;;;;;5005033;28;20060;-78
2022/11/11 09:13:03;;;;;;;16.83;9.60;;;;;;;;;;5009474;28;20469;-78
2022/11/11 09:15:29;;;;;;;19.33;9.80;;;;;;;;;;5010848;28;20378;-78
2022/11/11 09:17:55;;;;;;;18.33;11.15;;;;;;;;;;5007848;28;20106;-79
2022/11/11 09:20:21;;;;;;;21.25;10.73;;;;;;;;;;5008433;28;20104;-78
2022/11/11 09:22:47;;;;;;;15.40;9.43;;;;;;;;;;5006391;28;20179;-79
2022/11/11 09:25:14;;;;;;;18.40;8.98;;;;;;;;;;5008209;28;20033;-80
2022/11/11 09:27:41;;;;;;;19.13;9.23;;;;;;;;;;5006626;28;20410;-78
2022/11/11 09:30:07;;;;;;;16.98;9.00;;;;;;;;;;5008765;28;20096;-78
2022/11/11 09:32:33;;;;;;;14.45;8.93;;;;;;;;;;4999648;28;20133;-78
2022/11/11 09:34:59;;;;;;;16.65;9.52;;;;;;;;;;5005838;28;20025;-78
2022/11/11 09:37:26;;;;;;;15.13;8.82;;;;;;;;;;5007108;28;20030;-79
2022/11/11 09:39:54;;;;;;;13.38;8.73;;;;;;;;;;5008438;28;20060;-79
2022/11/11 09:42:36;;;;;;;21.23;9.25;;;;;;;;;;5004732;28;20053;-77
2022/11/11 09:45:35;;;;;;;27.55;13.48;;;;;;;;;;5020578;28;20034;-77
2022/11/11 09:48:27;;;;;;;18.73;9.13;;;;;;;;;;5024919;28;20030;-78
2022/11/11 09:50:56;;;;;;;16.33;8.53;;;;;;;;;;5000792;28;20030;-79
2022/11/11 09:53:25;;;;;;;21.00;8.90;;;;;;;;;;4999151;28;20358;-78
2022/11/11 09:56:01;;;;;;;16.05;9.43;;;;;;;;;;5005187;28;20120;-78
2022/11/11 09:58:35;;;;;;;21.40;8.88;;;;;;;;;;5003538;28;20022;-78
2022/11/11 10:01:09;;;;;;;22.13;8.80;;;;;;;;;;5002438;28;20033;-78
2022/11/11 10:03:40;;;;;;;16.33;8.85;;;;;;;;;;5003398;28;20533;-79
2022/11/11 10:06:33;;;;;;;17.35;9.88;;;;;;;;;;5005946;28;20025;-75
2022/11/11 10:09:46;;;;;;;19.33;8.77;;;;;;;;;;5003499;28;20652;-78
2022/11/11 10:12:14;;;;;;;18.45;9.35;;;;;;;;;;4982409;28;20034;-77
2022/11/11 10:14:46;;;;;;;28.70;11.20;;;;;;;;;;5003204;28;20049;-76
2022/11/11 10:17:28;;;;;;;;;;;;;;;;;;5010235;28;20056;-78
2022/11/11 10:20:15;;;;;;;18.98;8.73;;;;;;;;;;5009324;28;20284;-77
2022/11/11 10:22:42;;;;;;;18.42;10.13;;;;;;;;;;5022161;28;20470;-77
2022/11/11 10:25:11;;;;;;;17.27;9.52;;;;;;;;;;5008139;28;20048;-78
2022/11/11 10:27:46;;;;;;;16.60;9.20;;;;;;;;;;5012237;28;20117;-78
2022/11/11 10:30:23;;;;;;;17.58;8.95;;;;;;;;;;5023800;28;20120;-78
2022/11/11 10:33:03;;;;;;;16.42;9.27;;;;;;;;;;5011867;28;20056;-79
2022/11/11 10:35:32;;;;;;;18.50;8.57;;;;;;;;;;5018240;28;20095;-79
2022/11/11 10:38:09;;;;;;;16.80;7.82;;;;;;;;;;5011145;28;20100;-78
2022/11/11 10:40:35;;;;;;;13.13;7.93;;;;;;;;;;5007958;28;20049;-79
2022/11/11 10:43:00;;;;;;;19.88;7.95;;;;;;;;;;5004129;28;20102;-77
2022/11/11 10:45:58;;;;;;;17.58;8.85;;;;;;;;;;5018720;28;20030;-76
2022/11/11 10:48:49;;;;;;;17.13;8.77;;;;;;;;;;5011144;28;20088;-77
2022/11/11 10:51:16;;;;;;;18.45;9.85;;;;;;;;;;5006232;28;20985;-79
2022/11/11 10:53:53;;;;;;;20.42;9.23;;;;;;;;;;5012461;28;20099;-78
2022/11/11 10:56:23;;;;;;;17.65;8.77;;;;;;;;;;5007209;28;20030;-79
2022/11/11 10:58:56;;;;;;;17.58;10.00;;;;;;;;;;5005967;28;20506;-77
2022/11/11 11:01:33;;;;;;;17.15;10.05;;;;;;;;;;5007863;28;20034;-77
2022/11/11 11:04:10;;;;;;;22.42;10.82;;;;;;;;;;4989743;28;20065;-76
2022/11/11 11:06:40;;;;;;;23.65;9.63;;;;;;;;;;5007104;28;20807;-79
2022/11/11 11:09:24;;;;;;;20.17;10.40;;;;;;;;;;5007542;28;20025;-79
2022/11/11 11:11:58;;;;;;;28.27;15.32;;;;;;;;;;5005583;28;20045;-79
2022/11/11 11:14:29;;;;;;;29.33;16.65;;;;;;;;;;5006743;28;20034;-78
2022/11/11 11:17:00;;;;;;;25.17;13.77;;;;;;;;;;5007351;28;20030;-77
2022/11/11 11:19:27;;;;;;;24.08;12.23;;;;;;;;;;5004983;28;20493;-79
2022/11/11 11:21:55;;;;;;;24.48;11.43;;;;;;;;;;5007287;28;20026;-79
2022/11/11 11:24:25;;;;;;;23.10;11.23;;;;;;;;;;5007960;28;20034;-77
2022/11/11 11:26:57;;;;;;;16.08;9.88;;;;;;;;;;5022587;28;20033;-78
2022/11/11 11:29:31;;;;;;;27.48;10.95;;;;;;;;;;5006296;28;20037;-78
2022/11/11 11:32:17;;;;;;;19.50;10.75;;;;;;;;;;5013499;28;20049;-77
2022/11/11 11:34:45;;;;;;;28.20;14.48;;;;;;;;;;5005972;28;20034;-78
2022/11/11 11:37:11;;;;;;;18.50;9.68;;;;;;;;;;5007971;28;20513;-78
2022/11/11 11:39:38;;;;;;;23.63;10.45;;;;;;;;;;5006273;28;20094;-79
2022/11/11 11:42:05;;;;;;;17.80;9.00;;;;;;;;;;5003571;28;20346;-78
2022/11/11 11:44:36;;;;;;;21.38;10.10;;;;;;;;;;5006554;28;20181;-80
2022/11/11 11:47:31;;;;;;;22.33;9.82;;;;;;;;;;5008214;28;20060;-78
2022/11/11 11:50:24;;;;;;;20.90;10.32;;;;;;;;;;5005554;28;20045;-80
2022/11/11 11:53:19;;;;;;;21.60;11.45;;;;;;;;;;5003722;28;20045;-80
2022/11/11 11:56:20;;;;;;;16.33;9.75;;;;;;;;;;5005190;28;20038;-80
2022/11/11 11:59:43;;;;;;;18.15;10.23;;;;;;;;;;5004867;28;20042;-79
2022/11/11 12:02:39;;;;;;;20.83;8.82;;;;;;;;;;4989611;28;20041;-78
2022/11/11 12:05:38;;;;;;;21.23;9.07;;;;;;;;;;5020087;28;20342;-79
2022/11/11 12:08:44;;;;;;;19.13;10.02;;;;;;;;;;5004143;28;20108;-78
2022/11/11 12:11:50;;;;;;;19.38;9.25;;;;;;;;;;5006481;28;20057;-78
2022/11/11 12:14:32;;;;;;;17.15;9.75;;;;;;;;;;4996835;28;20446;-79
2022/11/11 12:17:23;;;;;;;20.23;10.45;;;;;;;;;;5004187;28;20038;-81
2022/11/11 12:20:01;;;;;;;19.43;11.77;;;;;;;;;;5005613;28;20359;-81
2022/11/11 12:22:35;;;;;;;15.95;9.82;;;;;;;;;;5006870;28;20275;-80
2022/11/11 12:25:22;;;;;;;36.63;17.42;;;;;;;;;;5007175;28;20033;-78
2022/11/11 12:28:14;;;;;;;29.90;12.43;;;;;;;;;;5006747;28;20097;-80
2022/11/11 12:30:48;;;;;;;22.25;9.90;;;;;;;;;;5006337;28;20065;-79
2022/11/11 12:33:48;;;;;;;22.55;9.90;;;;;;;;;;4994100;28;20037;-79
2022/11/11 12:36:39;;;;;;;15.48;8.57;;;;;;;;;;5021729;28;20102;-79
2022/11/11 12:39:13;;;;;;;19.73;9.50;;;;;;;;;;5006367;28;20041;-79
2022/11/11 12:42:09;;;;;;;20.50;8.98;;;;;;;;;;5004705;28;20062;-78
2022/11/11 12:44:57;;;;;;;19.42;9.88;;;;;;;;;;5007929;28;20517;-79
2022/11/11 12:47:27;;;;;;;21.30;12.02;;;;;;;;;;5004585;28;20562;-79
2022/11/11 12:50:07;;;;;;;21.83;10.45;;;;;;;;;;4998388;28;20050;-79
2022/11/11 12:53:01;;;;;;;33.75;13.18;;;;;;;;;;4998836;28;20270;-77
2022/11/11 12:56:00;;;;;;;13.13;8.07;;;;;;;;;;5004429;28;20265;-79
2022/11/11 12:58:54;;;;;;;17.67;9.65;;;;;;;;;;5004975;28;20037;-76
2022/11/11 13:01:38;;;;;;;16.20;8.55;;;;;;;;;;4989798;28;20065;-80
2022/11/11 13:04:19;;;;;;;13.43;7.50;;;;;;;;;;5004657;28;20125;-77
2022/11/11 13:07:12;;;;;;;19.48;9.02;;;;;;;;;;5008624;28;20030;-79
2022/11/11 13:10:08;;;;;;;17.10;9.00;;;;;;;;;;5005720;28;20331;-78
2022/11/11 13:12:48;;;;;;;19.25;8.38;;;;;;;;;;5000454;28;20041;-79
2022/11/11 13:15:18;;;;;;;15.13;8.23;;;;;;;;;;5005175;28;20034;-79
2022/11/11 13:17:43;;;;;;;16.90;9.55;;;;;;;;;;5004395;28;20026;-79
2022/11/11 13:20:27;;;;;;;15.45;9.10;;;;;;;;;;5003788;28;20731;-79
2022/11/11 13:22:52;;;;;;;20.20;8.77;;;;;;;;;;5002482;28;20030;-78
2022/11/11 13:25:30;;;;;;;17.77;9.32;;;;;;;;;;5005595;28;20040;-79
2022/11/11 13:28:03;;;;;;;19.48;8.95;;;;;;;;;;5009579;28;20088;-78
2022/11/11 13:30:39;;;;;;;20.75;9.18;;;;;;;;;;5009381;28;20489;-79
2022/11/11 13:33:12;;;;;;;16.45;8.82;;;;;;;;;;5012196;28;20339;-77
2022/11/11 13:35:44;;;;;;;18.23;8.73;;;;;;;;;;5024673;28;20029;-77
2022/11/11 13:38:24;;;;;;;19.58;9.57;;;;;;;;;;5022015;28;20026;-78
2022/11/11 13:40:54;;;;;;;12.50;8.23;;;;;;;;;;5006788;28;20065;-78
2022/11/11 13:43:33;;;;;;;27.73;9.18;;;;;;;;;;5009085;28;20099;-77
2022/11/11 13:46:01;;;;;;;16.13;8.02;;;;;;;;;;4997506;28;20037;-78
2022/11/11 13:48:46;;;;;;;18.63;7.72;;;;;;;;;;5005549;28;20061;-79
2022/11/11 13:51:27;;;;;;;20.65;8.68;;;;;;;;;;5001592;28;20048;-79
2022/11/11 13:53:53;;;;;;;15.25;7.78;;;;;;;;;;5023006;28;20060;-80
2022/11/11 13:56:21;;;;;;;20.08;9.10;;;;;;;;;;5011938;28;20771;-79
2022/11/11 13:58:48;;;;;;;16.35;7.38;;;;;;;;;;5007547;28;20450;-77
2022/11/11 14:01:16;;;;;;;20.13;8.63;;;;;;;;;;5010583;28;20138;-78
2022/11/11 14:03:44;;;;;;;15.95;8.30;;;;;;;;;;5013284;28;20431;-79
2022/11/11 14:06:15;;;;;;;21.08;9.07;;;;;;;;;;5014333;28;20037;-78
2022/11/11 14:08:51;;;;;;;16.90;8.20;;;;;;;;;;5015966;28;20053;-79
2022/11/11 14:11:38;;;;;;;23.85;9.70;;;;;;;;;;5009155;28;20141;-77
2022/11/11 14:14:25;;;;;;;22.77;8.73;;;;;;;;;;5014995;28;20545;-78
2022/11/11 14:16:51;;;;;;;18.75;7.93;;;;;;;;;;5011011;28;20029;-79
2022/11/11 14:19:19;;;;;;;16.10;8.50;;;;;;;;;;5012702;28;20036;-77
2022/11/11 14:21:55;;;;;;;14.23;9.40;;;;;;;;;;5028226;28;20053;-79
2022/11/11 14:24:37;;;;;;;19.90;8.68;;;;;;;;;;5014414;28;20025;-77
2022/11/11 14:27:09;;;;;;;19.63;8.75;;;;;;;;;;5024796;28;20346;-77
2022/11/11 14:29:50;;;;;;;26.05;9.68;;;;;;;;;;5006686;28;20038;-77
2022/11/11 14:32:35;;;;;;;16.30;9.63;;;;;;;;;;5011397;28;20124;-79
2022/11/11 14:35:14;;;;;;;22.30;9.10;;;;;;;;;;5025956;28;20026;-79
2022/11/11 14:38:27;;;;;;;19.80;9.52;;;;;;;;;;5020127;28;20393;-79
2022/11/11 14:40:52;;;;;;;19.20;9.65;;;;;;;;;;5010903;28;20046;-77
2022/11/11 14:43:38;;;;;;;23.17;9.30;;;;;;;;;;5016155;28;20029;-79
2022/11/11 14:46:10;;;;;;;23.30;9.13;;;;;;;;;;5033515;28;20040;-76
2022/11/11 14:48:48;;;;;;;;;;;;;;;;;;5017658;28;20362;-79
2022/11/11 14:51:43;;;;;;;28.90;9.27;;;;;;;;;;5010346;28;20285;-78
2022/11/11 14:54:25;;;;;;;18.55;8.32;;;;;;;;;;5001291;28;20038;-76
2022/11/11 14:57:07;;;;;;;14.80;8.60;;;;;;;;;;5007574;28;20030;-78
2022/11/11 14:59:34;;;;;;;16.25;8.45;;;;;;;;;;5011145;28;20014;-78
2022/11/11 15:02:00;;;;;;;19.05;7.95;;;;;;;;;;5013558;28;20489;-77
2022/11/11 15:04:26;;;;;;;19.50;8.38;;;;;;;;;;5009349;28;20112;-78
2022/11/11 15:07:00;;;;;;;29.15;9.45;;;;;;;;;;5013526;28;20030;-78
2022/11/11 15:09:51;;;;;;;24.23;10.07;;;;;;;;;;5012797;28;20482;-78
2022/11/11 15:12:35;;;;;;;26.20;12.20;;;;;;;;;;5010434;28;20191;-78
2022/11/11 15:15:25;;;;;;;16.38;9.23;;;;;;;;;;5012779;28;20018;-78
2022/11/11 15:18:19;;;;;;;14.55;7.95;;;;;;;;;;5033603;28;20622;-79
2022/11/11 15:20:48;;;;;;;18.60;8.70;;;;;;;;;;5001787;28;20033;-78
2022/11/11 15:23:41;;;;;;;19.25;8.90;;;;;;;;;;5017382;28;20022;-78
2022/11/11 15:26:19;;;;;;;20.25;8.73;;;;;;;;;;5003592;28;20130;-78
2022/11/11 15:28:47;;;;;;;20.58;9.68;;;;;;;;;;5029446;28;20025;-78
2022/11/11 15:31:32;;;;;;;21.20;8.20;;;;;;;;;;5031999;28;20018;-78
2022/11/11 15:34:35;;;;;;;18.63;9.10;;;;;;;;;;5031836;28;20101;-76
2022/11/11 15:37:08;;;;;;;17.10;7.80;;;;;;;;;;5026534;28;20037;-78
2022/11/11 15:39:43;;;;;;;22.98;9.30;;;;;;;;;;5014029;28;20030;-78
2022/11/11 15:42:31;;;;;;;19.90;8.63;;;;;;;;;;5032299;28;20374;-78
2022/11/11 15:45:00;;;;;;;18.95;8.30;;;;;;;;;;5024234;28;20034;-78
2022/11/11 15:47:27;;;;;;;25.63;10.15;;;;;;;;;;5032174;28;20509;-79
2022/11/11 15:49:53;;;;;;;25.35;9.63;;;;;;;;;;5031009;28;20127;-78
2022/11/11 15:52:22;;;;;;;21.85;9.68;;;;;;;;;;5012849;28;20034;-76
2022/11/11 15:54:51;;;;;;;23.13;10.00;;;;;;;;;;5010479;28;20040;-79
2022/11/11 15:57:29;;;;;;;21.63;10.90;;;;;;;;;;5012853;28;20026;-79
2022/11/11 15:59:57;;;;;;;23.33;10.10;;;;;;;;;;5009712;28;20121;-79
2022/11/11 16:02:32;;;;;;;18.27;10.25;;;;;;;;;;5013755;28;20104;-79
2022/11/11 16:05:17;;;;;;;20.65;10.57;;;;;;;;;;5012274;28;20040;-78
2022/11/11 16:07:46;;;;;;;19.80;9.82;;;;;;;;;;5011603;28;20026;-78
2022/11/11 16:10:16;;;;;;;29.42;10.52;;;;;;;;;;5011034;28;20086;-79
2022/11/11 16:12:59;;;;;;;24.48;10.85;;;;;;;;;;5012802;28;20057;-80
2022/11/11 16:15:30;;;;;;;19.08;9.27;;;;;;;;;;5012828;28;20400;-78